BJK9260 PHOG-KSLC
Flight info
| Callsign | BJK9260 |
|---|---|
| Flight time | 5h 23m |
| Altitude | 39000 |
| Route | OGG CLUTS R465 CINNY OAK MOGEE Q124 SLOWN FLECC YUTES2 |
| Aircraft | A332/H-VGDW/C |
Departure
| Time | 2026-04-20 16:03 |
|---|---|
| Airport | Kahului International Airport (PHOG) |
Arrival
| Time | 2026-04-20 21:26 |
|---|---|
| Airport | Salt Lake City International Airport (KSLC) |
| Time | Latitude | Longitude | Altitude | Speed | Heading |
|---|---|---|---|---|---|
| 2026-04-20 15:58 | 20.88939 | -156.43892 | 36 ft | 0 kts | 34° |
| 2026-04-20 16:01 | 20.88951 | -156.43882 | 36 ft | 6 kts | 38° |
| 2026-04-20 16:01 | 20.88981 | -156.43829 | 36 ft | 10 kts | 68° |
| 2026-04-20 16:01 | 20.88993 | -156.43754 | 36 ft | 11 kts | 89° |
| 2026-04-20 16:01 | 20.88989 | -156.43715 | 36 ft | 0 kts | 105° |
| 2026-04-20 16:02 | 20.88989 | -156.43714 | 36 ft | 1 kts | 105° |
| 2026-04-20 16:02 | 20.88967 | -156.43673 | 36 ft | 12 kts | 127° |
| 2026-04-20 16:02 | 20.88969 | -156.43597 | 36 ft | 12 kts | 52° |
| 2026-04-20 16:02 | 20.89163 | -156.43445 | 36 ft | 65 kts | 34° |
| 2026-04-20 16:03 | 20.89719 | -156.43036 | 34 ft | 125 kts | 34° |
| 2026-04-20 16:03 | 20.90568 | -156.42409 | 129 ft | 167 kts | 34° |
| 2026-04-20 16:03 | 20.91536 | -156.41684 | 801 ft | 173 kts | 35° |
| 2026-04-20 16:03 | 20.92526 | -156.40945 | 1606 ft | 175 kts | 34° |
| 2026-04-20 16:04 | 20.93526 | -156.40192 | 2277 ft | 182 kts | 36° |
| 2026-04-20 16:04 | 20.94610 | -156.39318 | 2550 ft | 211 kts | 37° |
| 2026-04-20 16:04 | 20.95855 | -156.38276 | 2762 ft | 242 kts | 38° |
| 2026-04-20 16:04 | 20.97240 | -156.37104 | 3204 ft | 262 kts | 38° |
| 2026-04-20 16:05 | 20.98681 | -156.35882 | 3912 ft | 267 kts | 38° |
| 2026-04-20 16:05 | 21.00149 | -156.34647 | 4710 ft | 271 kts | 38° |
| 2026-04-20 16:05 | 21.01621 | -156.33415 | 5512 ft | 272 kts | 38° |
| 2026-04-20 16:05 | 21.03137 | -156.32152 | 6351 ft | 274 kts | 38° |
| 2026-04-20 16:06 | 21.04644 | -156.30901 | 7133 ft | 276 kts | 39° |
| 2026-04-20 16:06 | 21.06172 | -156.29633 | 7868 ft | 281 kts | 39° |
| 2026-04-20 16:06 | 21.07734 | -156.28338 | 8588 ft | 287 kts | 38° |
| 2026-04-20 16:06 | 21.09327 | -156.27016 | 9344 ft | 293 kts | 37° |
| 2026-04-20 16:07 | 21.10953 | -156.25668 | 10094 ft | 298 kts | 37° |
| 2026-04-20 16:07 | 21.12643 | -156.24267 | 10478 ft | 317 kts | 37° |
| 2026-04-20 16:07 | 21.14446 | -156.22768 | 10741 ft | 338 kts | 36° |
| 2026-04-20 16:07 | 21.16347 | -156.21189 | 11179 ft | 352 kts | 36° |
| 2026-04-20 16:08 | 21.18303 | -156.19562 | 11781 ft | 359 kts | 36° |
| 2026-04-20 16:08 | 21.20286 | -156.17911 | 12495 ft | 363 kts | 36° |
| 2026-04-20 16:08 | 21.22289 | -156.16243 | 13191 ft | 367 kts | 36° |
| 2026-04-20 16:08 | 21.24314 | -156.14554 | 13889 ft | 371 kts | 36° |
| 2026-04-20 16:09 | 21.26360 | -156.12850 | 14514 ft | 375 kts | 36° |
| 2026-04-20 16:09 | 21.28430 | -156.11123 | 15123 ft | 379 kts | 36° |
| 2026-04-20 16:09 | 21.30520 | -156.09381 | 15767 ft | 382 kts | 36° |
| 2026-04-20 16:09 | 21.32628 | -156.07623 | 16411 ft | 386 kts | 36° |
| 2026-04-20 16:10 | 21.34756 | -156.05847 | 17032 ft | 390 kts | 36° |
| 2026-04-20 16:10 | 21.36909 | -156.04049 | 17642 ft | 394 kts | 36° |
| 2026-04-20 16:10 | 21.39082 | -156.02233 | 18245 ft | 398 kts | 36° |
| 2026-04-20 16:10 | 21.41281 | -156.00396 | 18768 ft | 402 kts | 36° |
| 2026-04-20 16:11 | 21.43496 | -155.98546 | 19295 ft | 406 kts | 36° |
| 2026-04-20 16:11 | 21.45734 | -155.96675 | 19815 ft | 409 kts | 36° |
| 2026-04-20 16:11 | 21.47991 | -155.94788 | 20332 ft | 413 kts | 35° |
| 2026-04-20 16:11 | 21.50235 | -155.92910 | 20828 ft | 416 kts | 35° |
| 2026-04-20 16:12 | 21.52532 | -155.90986 | 21303 ft | 421 kts | 35° |
| 2026-04-20 16:12 | 21.54847 | -155.89048 | 21777 ft | 425 kts | 35° |
| 2026-04-20 16:12 | 21.57187 | -155.87087 | 22270 ft | 428 kts | 34° |
| 2026-04-20 16:12 | 21.59542 | -155.85112 | 22781 ft | 431 kts | 34° |
| 2026-04-20 16:13 | 21.61914 | -155.83123 | 23300 ft | 434 kts | 34° |
| 2026-04-20 16:13 | 21.64299 | -155.81121 | 23741 ft | 437 kts | 34° |
| 2026-04-20 16:13 | 21.66705 | -155.79101 | 24112 ft | 441 kts | 34° |
| 2026-04-20 16:13 | 21.69136 | -155.77060 | 24484 ft | 444 kts | 34° |
| 2026-04-20 16:14 | 21.71574 | -155.75012 | 24859 ft | 448 kts | 34° |
| 2026-04-20 16:14 | 21.74042 | -155.72938 | 25232 ft | 451 kts | 34° |
| 2026-04-20 16:14 | 21.76515 | -155.70858 | 25585 ft | 454 kts | 34° |
| 2026-04-20 16:14 | 21.79017 | -155.68752 | 25941 ft | 457 kts | 34° |
| 2026-04-20 16:15 | 21.81533 | -155.66634 | 26306 ft | 461 kts | 35° |
| 2026-04-20 16:15 | 21.84058 | -155.64507 | 26665 ft | 464 kts | 35° |
| 2026-04-20 16:15 | 21.86605 | -155.62361 | 27104 ft | 465 kts | 35° |
| 2026-04-20 16:15 | 21.89149 | -155.60216 | 27487 ft | 468 kts | 35° |
| 2026-04-20 16:16 | 21.91741 | -155.58033 | 27733 ft | 473 kts | 35° |
| 2026-04-20 16:16 | 21.94345 | -155.55837 | 28073 ft | 476 kts | 35° |
| 2026-04-20 16:16 | 21.96955 | -155.53635 | 28421 ft | 479 kts | 35° |
| 2026-04-20 16:16 | 21.99587 | -155.51413 | 28757 ft | 483 kts | 35° |
| 2026-04-20 16:17 | 22.02243 | -155.49169 | 29096 ft | 486 kts | 35° |
| 2026-04-20 16:17 | 22.04904 | -155.46920 | 29423 ft | 489 kts | 35° |
| 2026-04-20 16:17 | 22.07590 | -155.44647 | 29767 ft | 492 kts | 35° |
| 2026-04-20 16:17 | 22.10290 | -155.42362 | 30087 ft | 495 kts | 35° |
| 2026-04-20 16:18 | 22.13000 | -155.40067 | 30437 ft | 496 kts | 35° |
| 2026-04-20 16:18 | 22.15720 | -155.37763 | 30760 ft | 498 kts | 35° |
| 2026-04-20 16:18 | 22.18452 | -155.35448 | 30998 ft | 502 kts | 35° |
| 2026-04-20 16:18 | 22.21206 | -155.33113 | 31240 ft | 505 kts | 35° |
| 2026-04-20 16:19 | 22.23937 | -155.30795 | 31495 ft | 508 kts | 35° |
| 2026-04-20 16:19 | 22.26721 | -155.28431 | 31702 ft | 512 kts | 34° |
| 2026-04-20 16:19 | 22.29550 | -155.26033 | 31804 ft | 519 kts | 34° |
| 2026-04-20 16:19 | 22.32397 | -155.23616 | 32062 ft | 522 kts | 34° |
| 2026-04-20 16:20 | 22.35247 | -155.21194 | 32418 ft | 522 kts | 34° |
| 2026-04-20 16:20 | 22.38104 | -155.18763 | 32837 ft | 521 kts | 34° |
| 2026-04-20 16:20 | 22.40012 | -155.17136 | 33338 ft | 515 kts | 34° |
| 2026-04-20 16:20 | 22.42818 | -155.14743 | 33875 ft | 512 kts | 34° |
| 2026-04-20 16:21 | 22.45620 | -155.12356 | 34130 ft | 514 kts | 34° |
| 2026-04-20 16:21 | 22.48436 | -155.09958 | 34362 ft | 516 kts | 34° |
| 2026-04-20 16:21 | 22.51259 | -155.07552 | 34630 ft | 517 kts | 34° |
| 2026-04-20 16:21 | 22.54085 | -155.05141 | 34887 ft | 518 kts | 34° |
| 2026-04-20 16:22 | 22.56882 | -155.02754 | 35143 ft | 519 kts | 34° |
| 2026-04-20 16:22 | 22.59715 | -155.00335 | 35402 ft | 519 kts | 34° |
| 2026-04-20 16:22 | 22.62591 | -154.97877 | 35656 ft | 520 kts | 34° |
| 2026-04-20 16:22 | 22.65394 | -154.95479 | 35979 ft | 519 kts | 34° |
| 2026-04-20 16:23 | 22.68222 | -154.93059 | 36297 ft | 518 kts | 34° |
| 2026-04-20 16:23 | 22.71051 | -154.90637 | 36510 ft | 520 kts | 33° |
| 2026-04-20 16:23 | 22.73891 | -154.88207 | 36723 ft | 521 kts | 33° |
| 2026-04-20 16:23 | 22.76775 | -154.85737 | 36966 ft | 522 kts | 33° |
| 2026-04-20 16:24 | 22.79588 | -154.83327 | 37195 ft | 522 kts | 33° |
| 2026-04-20 16:24 | 22.82433 | -154.80886 | 37418 ft | 523 kts | 33° |
| 2026-04-20 16:24 | 22.85331 | -154.78399 | 37643 ft | 524 kts | 33° |
| 2026-04-20 16:24 | 22.88152 | -154.75976 | 37866 ft | 524 kts | 33° |
| 2026-04-20 16:25 | 22.91049 | -154.73488 | 38079 ft | 525 kts | 33° |
| 2026-04-20 16:25 | 22.93875 | -154.71059 | 38321 ft | 525 kts | 33° |
| 2026-04-20 16:25 | 22.96732 | -154.68601 | 38546 ft | 525 kts | 33° |
| 2026-04-20 16:25 | 22.99480 | -154.65961 | 38717 ft | 532 kts | 43° |
| 2026-04-20 16:26 | 23.01840 | -154.62852 | 38891 ft | 536 kts | 50° |
| 2026-04-20 16:26 | 23.04023 | -154.59560 | 39030 ft | 538 kts | 52° |
| 2026-04-20 16:26 | 23.08189 | -154.52807 | 39052 ft | 538 kts | 54° |
| 2026-04-20 16:27 | 23.12268 | -154.46003 | 39061 ft | 537 kts | 54° |
| 2026-04-20 16:27 | 23.16359 | -154.39210 | 39060 ft | 537 kts | 54° |
| 2026-04-20 16:28 | 23.20466 | -154.32432 | 39058 ft | 537 kts | 54° |
| 2026-04-20 16:28 | 23.24587 | -154.25639 | 39059 ft | 538 kts | 54° |
| 2026-04-20 16:29 | 23.28704 | -154.18844 | 39064 ft | 538 kts | 54° |
| 2026-04-20 16:29 | 23.32827 | -154.12031 | 39060 ft | 539 kts | 54° |
| 2026-04-20 16:30 | 23.36935 | -154.05231 | 39077 ft | 538 kts | 54° |
| 2026-04-20 16:30 | 23.41033 | -153.98439 | 39072 ft | 536 kts | 54° |
| 2026-04-20 16:31 | 23.45127 | -153.91645 | 39064 ft | 537 kts | 54° |
| 2026-04-20 16:31 | 23.49222 | -153.84836 | 39063 ft | 537 kts | 54° |
| 2026-04-20 16:32 | 23.53320 | -153.78016 | 39075 ft | 537 kts | 54° |
| 2026-04-20 16:32 | 23.57407 | -153.71202 | 39105 ft | 537 kts | 54° |
| 2026-04-20 16:33 | 23.61495 | -153.64383 | 39070 ft | 536 kts | 54° |
| 2026-04-20 16:33 | 23.65562 | -153.57586 | 39076 ft | 534 kts | 54° |
| 2026-04-20 16:34 | 23.69592 | -153.50839 | 39074 ft | 534 kts | 54° |
| 2026-04-20 16:34 | 23.73649 | -153.44042 | 39075 ft | 534 kts | 54° |
| 2026-04-20 16:35 | 23.77708 | -153.37239 | 39074 ft | 537 kts | 54° |
| 2026-04-20 16:35 | 23.81791 | -153.30408 | 39081 ft | 537 kts | 54° |
| 2026-04-20 16:36 | 23.85864 | -153.23598 | 39080 ft | 534 kts | 54° |
| 2026-04-20 16:36 | 23.89925 | -153.16803 | 39079 ft | 533 kts | 54° |
| 2026-04-20 16:37 | 23.93978 | -153.10012 | 39071 ft | 534 kts | 54° |
| 2026-04-20 16:37 | 23.98050 | -153.03180 | 39077 ft | 537 kts | 54° |
| 2026-04-20 16:38 | 24.02126 | -152.96326 | 39103 ft | 538 kts | 55° |
| 2026-04-20 16:38 | 24.06184 | -152.89492 | 39080 ft | 534 kts | 55° |
| 2026-04-20 16:39 | 24.10228 | -152.82675 | 39070 ft | 533 kts | 55° |
| 2026-04-20 16:39 | 24.14281 | -152.75844 | 39081 ft | 538 kts | 54° |
| 2026-04-20 16:40 | 24.18349 | -152.68978 | 39081 ft | 537 kts | 55° |
| 2026-04-20 16:40 | 24.22411 | -152.62095 | 39122 ft | 539 kts | 54° |
| 2026-04-20 16:41 | 24.26477 | -152.55208 | 39092 ft | 536 kts | 55° |
| 2026-04-20 16:41 | 24.30514 | -152.48344 | 39092 ft | 536 kts | 55° |
| 2026-04-20 16:42 | 24.34566 | -152.41452 | 39088 ft | 539 kts | 55° |
| 2026-04-20 16:42 | 24.38624 | -152.34545 | 39091 ft | 539 kts | 55° |
| 2026-04-20 16:43 | 24.42683 | -152.27625 | 39094 ft | 538 kts | 55° |
| 2026-04-20 16:43 | 24.46727 | -152.20720 | 39088 ft | 537 kts | 55° |
| 2026-04-20 16:44 | 24.50774 | -152.13801 | 39097 ft | 539 kts | 55° |
| 2026-04-20 16:44 | 24.54829 | -152.06861 | 39096 ft | 540 kts | 55° |
| 2026-04-20 16:45 | 24.58878 | -151.99920 | 39100 ft | 538 kts | 55° |
| 2026-04-20 16:45 | 24.62901 | -151.93012 | 39100 ft | 536 kts | 55° |
| 2026-04-20 16:46 | 24.66910 | -151.86116 | 39102 ft | 536 kts | 56° |
| 2026-04-20 16:46 | 24.70926 | -151.79206 | 39100 ft | 536 kts | 56° |
| 2026-04-20 16:47 | 24.74938 | -151.72291 | 39105 ft | 536 kts | 56° |
| 2026-04-20 16:47 | 24.78947 | -151.65367 | 39105 ft | 536 kts | 56° |
| 2026-04-20 16:48 | 24.82947 | -151.58450 | 39105 ft | 535 kts | 56° |
| 2026-04-20 16:48 | 24.86936 | -151.51536 | 39116 ft | 535 kts | 56° |
| 2026-04-20 16:49 | 24.90913 | -151.44643 | 39111 ft | 532 kts | 56° |
| 2026-04-20 16:49 | 24.94877 | -151.37761 | 39109 ft | 532 kts | 56° |
| 2026-04-20 16:50 | 24.98838 | -151.30873 | 39104 ft | 533 kts | 57° |
| 2026-04-20 16:50 | 25.02815 | -151.23949 | 39116 ft | 535 kts | 57° |
| 2026-04-20 16:51 | 25.06770 | -151.17052 | 39125 ft | 535 kts | 56° |
| 2026-04-20 16:51 | 25.10729 | -151.10135 | 39114 ft | 532 kts | 56° |
| 2026-04-20 16:52 | 25.14672 | -151.03236 | 39101 ft | 531 kts | 56° |
| 2026-04-20 16:52 | 25.18614 | -150.96330 | 39119 ft | 533 kts | 57° |
| 2026-04-20 16:53 | 25.22558 | -150.89409 | 39124 ft | 533 kts | 57° |
| 2026-04-20 16:53 | 25.26510 | -150.82467 | 39124 ft | 533 kts | 57° |
| 2026-04-20 16:54 | 25.30451 | -150.75532 | 39127 ft | 533 kts | 57° |
| 2026-04-20 16:54 | 25.34397 | -150.68578 | 39128 ft | 536 kts | 57° |
| 2026-04-20 16:55 | 25.38362 | -150.61580 | 39129 ft | 538 kts | 57° |
| 2026-04-20 16:55 | 25.42332 | -150.54566 | 39130 ft | 538 kts | 57° |
| 2026-04-20 16:56 | 25.46294 | -150.47555 | 39135 ft | 537 kts | 56° |
| 2026-04-20 16:56 | 25.50227 | -150.40582 | 39135 ft | 533 kts | 56° |
| 2026-04-20 16:57 | 25.54162 | -150.33594 | 39138 ft | 535 kts | 57° |
| 2026-04-20 16:57 | 25.58097 | -150.26600 | 39137 ft | 535 kts | 57° |
| 2026-04-20 16:58 | 25.62029 | -150.19599 | 39141 ft | 535 kts | 57° |
| 2026-04-20 16:58 | 25.65937 | -150.12629 | 39141 ft | 535 kts | 56° |
| 2026-04-20 16:59 | 25.69859 | -150.05623 | 39144 ft | 534 kts | 56° |
| 2026-04-20 16:59 | 25.73773 | -149.98621 | 39145 ft | 534 kts | 56° |
| 2026-04-20 17:00 | 25.79635 | -149.88115 | 39143 ft | 534 kts | 57° |
| 2026-04-20 17:01 | 25.83541 | -149.81104 | 39162 ft | 536 kts | 57° |
| 2026-04-20 17:01 | 25.87454 | -149.74070 | 39150 ft | 534 kts | 57° |
| 2026-04-20 17:02 | 25.91343 | -149.67064 | 39150 ft | 532 kts | 57° |
| 2026-04-20 17:02 | 25.95220 | -149.60069 | 39138 ft | 532 kts | 57° |
| 2026-04-20 17:03 | 25.99108 | -149.53046 | 39155 ft | 535 kts | 57° |
| 2026-04-20 17:03 | 26.03008 | -149.45988 | 39163 ft | 536 kts | 57° |
| 2026-04-20 17:04 | 26.06895 | -149.38942 | 39154 ft | 533 kts | 57° |
| 2026-04-20 17:04 | 26.10754 | -149.31937 | 39156 ft | 532 kts | 57° |
| 2026-04-20 17:05 | 26.14623 | -149.24904 | 39158 ft | 533 kts | 57° |
| 2026-04-20 17:05 | 26.17836 | -149.19058 | 39156 ft | 534 kts | 57° |
| 2026-04-20 17:06 | 26.21712 | -149.11992 | 39169 ft | 534 kts | 57° |
| 2026-04-20 17:06 | 26.25549 | -149.04984 | 39162 ft | 527 kts | 57° |
| 2026-04-20 17:07 | 26.29360 | -148.98015 | 39164 ft | 528 kts | 57° |
| 2026-04-20 17:07 | 26.33191 | -148.91001 | 39164 ft | 531 kts | 57° |
| 2026-04-20 17:08 | 26.37025 | -148.83969 | 39170 ft | 531 kts | 57° |
| 2026-04-20 17:08 | 26.40858 | -148.76928 | 39170 ft | 529 kts | 57° |
| 2026-04-20 17:09 | 26.44643 | -148.69961 | 39173 ft | 523 kts | 57° |
| 2026-04-20 17:09 | 26.48411 | -148.63017 | 39171 ft | 522 kts | 57° |
| 2026-04-20 17:10 | 26.52173 | -148.56076 | 39174 ft | 522 kts | 57° |
| 2026-04-20 17:10 | 26.55928 | -148.49134 | 39176 ft | 523 kts | 57° |
| 2026-04-20 17:11 | 26.59683 | -148.42182 | 39179 ft | 522 kts | 57° |
| 2026-04-20 17:11 | 26.63420 | -148.35254 | 39179 ft | 519 kts | 57° |
| 2026-04-20 17:12 | 26.67145 | -148.28337 | 39178 ft | 519 kts | 57° |
| 2026-04-20 17:12 | 26.70865 | -148.21418 | 39179 ft | 519 kts | 57° |
| 2026-04-20 17:13 | 26.74589 | -148.14479 | 39184 ft | 522 kts | 57° |
| 2026-04-20 17:13 | 26.78293 | -148.07571 | 39180 ft | 518 kts | 58° |
| 2026-04-20 17:14 | 26.82013 | -148.00620 | 39183 ft | 515 kts | 57° |
| 2026-04-20 17:14 | 26.85661 | -147.93784 | 39186 ft | 516 kts | 58° |
| 2026-04-20 17:15 | 26.89342 | -147.86881 | 39186 ft | 519 kts | 57° |
| 2026-04-20 17:15 | 26.93042 | -147.79928 | 39202 ft | 520 kts | 57° |
| 2026-04-20 17:16 | 26.96731 | -147.73001 | 39190 ft | 515 kts | 58° |
| 2026-04-20 17:16 | 27.00376 | -147.66118 | 39182 ft | 512 kts | 58° |
| 2026-04-20 17:17 | 27.04026 | -147.59245 | 39180 ft | 515 kts | 58° |
| 2026-04-20 17:17 | 27.07700 | -147.52315 | 39184 ft | 518 kts | 58° |
| 2026-04-20 17:18 | 27.11374 | -147.45359 | 39184 ft | 518 kts | 58° |
| 2026-04-20 17:18 | 27.15042 | -147.38417 | 39186 ft | 517 kts | 58° |
| 2026-04-20 17:19 | 27.18710 | -147.31443 | 39186 ft | 520 kts | 58° |
| 2026-04-20 17:19 | 27.22409 | -147.24413 | 39186 ft | 524 kts | 58° |
| 2026-04-20 17:20 | 27.26113 | -147.17360 | 39185 ft | 524 kts | 58° |
| 2026-04-20 17:20 | 27.29798 | -147.10329 | 39174 ft | 518 kts | 58° |
| 2026-04-20 17:21 | 27.33445 | -147.03362 | 39187 ft | 517 kts | 58° |
| 2026-04-20 17:21 | 27.37101 | -146.96366 | 39186 ft | 519 kts | 58° |
| 2026-04-20 17:22 | 27.40751 | -146.89365 | 39189 ft | 518 kts | 58° |
| 2026-04-20 17:22 | 27.44401 | -146.82361 | 39185 ft | 519 kts | 58° |
| 2026-04-20 17:23 | 27.48020 | -146.75404 | 39193 ft | 518 kts | 58° |
| 2026-04-20 17:23 | 27.51656 | -146.68400 | 39192 ft | 518 kts | 58° |
| 2026-04-20 17:24 | 27.55291 | -146.61388 | 39195 ft | 518 kts | 58° |
| 2026-04-20 17:24 | 27.58923 | -146.54372 | 39189 ft | 519 kts | 58° |
| 2026-04-20 17:25 | 27.62560 | -146.47331 | 39193 ft | 517 kts | 58° |
| 2026-04-20 17:25 | 27.66159 | -146.40350 | 39195 ft | 514 kts | 58° |
| 2026-04-20 17:26 | 27.69749 | -146.33380 | 39193 ft | 513 kts | 58° |
| 2026-04-20 17:26 | 27.73361 | -146.26358 | 39194 ft | 515 kts | 58° |
| 2026-04-20 17:27 | 27.76958 | -146.19352 | 39206 ft | 517 kts | 58° |
| 2026-04-20 17:27 | 27.80525 | -146.12390 | 39197 ft | 513 kts | 58° |
| 2026-04-20 17:28 | 27.84091 | -146.05420 | 39198 ft | 512 kts | 58° |
| 2026-04-20 17:28 | 27.87652 | -145.98449 | 39200 ft | 512 kts | 58° |
| 2026-04-20 17:29 | 27.91214 | -145.91467 | 39196 ft | 513 kts | 58° |
| 2026-04-20 17:29 | 27.94771 | -145.84482 | 39195 ft | 510 kts | 58° |
| 2026-04-20 17:30 | 27.98295 | -145.77546 | 39193 ft | 508 kts | 58° |
| 2026-04-20 17:30 | 28.01818 | -145.70602 | 39195 ft | 510 kts | 58° |
| 2026-04-20 17:31 | 28.05350 | -145.63627 | 39194 ft | 511 kts | 58° |
| 2026-04-20 17:31 | 28.08879 | -145.56651 | 39204 ft | 511 kts | 58° |
| 2026-04-20 17:32 | 28.12391 | -145.49694 | 39197 ft | 507 kts | 58° |
| 2026-04-20 17:32 | 28.15890 | -145.42754 | 39200 ft | 508 kts | 58° |
| 2026-04-20 17:33 | 28.19390 | -145.35806 | 39193 ft | 508 kts | 58° |
| 2026-04-20 17:33 | 28.22886 | -145.28849 | 39192 ft | 508 kts | 58° |
| 2026-04-20 17:34 | 28.26377 | -145.21888 | 39194 ft | 507 kts | 58° |
| 2026-04-20 17:34 | 28.29853 | -145.14943 | 39198 ft | 506 kts | 58° |
| 2026-04-20 17:35 | 28.33327 | -145.07992 | 39196 ft | 506 kts | 58° |
| 2026-04-20 17:35 | 28.36802 | -145.01033 | 39200 ft | 506 kts | 58° |
| 2026-04-20 17:36 | 28.40271 | -144.94072 | 39205 ft | 507 kts | 58° |
| 2026-04-20 17:36 | 28.43725 | -144.87126 | 39195 ft | 504 kts | 58° |
| 2026-04-20 17:37 | 28.47167 | -144.80196 | 39198 ft | 503 kts | 58° |
| 2026-04-20 17:37 | 28.50579 | -144.73315 | 39189 ft | 503 kts | 58° |
| 2026-04-20 17:38 | 28.54015 | -144.66373 | 39200 ft | 504 kts | 58° |
| 2026-04-20 17:38 | 28.57446 | -144.59429 | 39195 ft | 503 kts | 58° |
| 2026-04-20 17:39 | 28.60860 | -144.52507 | 39196 ft | 501 kts | 58° |
| 2026-04-20 17:39 | 28.64265 | -144.45587 | 39194 ft | 501 kts | 58° |
| 2026-04-20 17:40 | 28.67674 | -144.38660 | 39196 ft | 502 kts | 58° |
| 2026-04-20 17:40 | 28.71082 | -144.31717 | 39195 ft | 502 kts | 58° |
| 2026-04-20 17:41 | 28.74481 | -144.24778 | 39198 ft | 502 kts | 58° |
| 2026-04-20 17:41 | 28.77881 | -144.17828 | 39195 ft | 503 kts | 58° |
| 2026-04-20 17:42 | 28.81288 | -144.10851 | 39192 ft | 504 kts | 58° |
| 2026-04-20 17:42 | 28.84691 | -144.03868 | 39202 ft | 503 kts | 58° |
| 2026-04-20 17:43 | 28.88078 | -143.96905 | 39190 ft | 501 kts | 58° |
| 2026-04-20 17:43 | 28.91456 | -143.89955 | 39192 ft | 501 kts | 58° |
| 2026-04-20 17:44 | 28.94831 | -143.82997 | 39190 ft | 501 kts | 58° |
| 2026-04-20 17:44 | 28.98215 | -143.76019 | 39205 ft | 502 kts | 58° |
| 2026-04-20 17:45 | 29.01551 | -143.69105 | 39196 ft | 499 kts | 58° |
| 2026-04-20 17:45 | 29.04899 | -143.62161 | 39192 ft | 499 kts | 58° |
| 2026-04-20 17:46 | 29.08248 | -143.55208 | 39191 ft | 499 kts | 58° |
| 2026-04-20 17:46 | 29.11596 | -143.48246 | 39192 ft | 500 kts | 58° |
| 2026-04-20 17:47 | 29.14939 | -143.41284 | 39194 ft | 499 kts | 58° |
| 2026-04-20 17:47 | 29.18263 | -143.34351 | 39190 ft | 497 kts | 58° |
| 2026-04-20 17:48 | 29.21591 | -143.27395 | 39193 ft | 498 kts | 58° |
| 2026-04-20 17:48 | 29.24910 | -143.20443 | 39191 ft | 498 kts | 58° |
| 2026-04-20 17:49 | 29.28237 | -143.13467 | 39197 ft | 499 kts | 58° |
| 2026-04-20 17:49 | 29.31553 | -143.06497 | 39181 ft | 498 kts | 58° |
| 2026-04-20 17:50 | 29.34863 | -142.99527 | 39192 ft | 498 kts | 58° |
| 2026-04-20 17:50 | 29.38170 | -142.92551 | 39184 ft | 498 kts | 58° |
| 2026-04-20 17:51 | 29.41485 | -142.85556 | 39185 ft | 500 kts | 58° |
| 2026-04-20 17:51 | 29.44783 | -142.78580 | 39189 ft | 496 kts | 58° |
| 2026-04-20 17:52 | 29.48060 | -142.71628 | 39189 ft | 496 kts | 58° |
| 2026-04-20 17:52 | 29.50789 | -142.65835 | 39183 ft | 497 kts | 58° |
| 2026-04-20 17:53 | 29.54071 | -142.58854 | 39201 ft | 497 kts | 58° |
| 2026-04-20 17:53 | 29.57877 | -142.50742 | 39178 ft | 495 kts | 57° |
| 2026-04-20 17:54 | 29.60601 | -142.44926 | 39181 ft | 495 kts | 57° |
| 2026-04-20 17:54 | 29.63874 | -142.37933 | 39182 ft | 496 kts | 58° |
| 2026-04-20 17:55 | 29.67138 | -142.30944 | 39182 ft | 496 kts | 58° |
| 2026-04-20 17:55 | 29.70386 | -142.23970 | 39181 ft | 495 kts | 57° |
| 2026-04-20 17:56 | 29.73614 | -142.17029 | 39179 ft | 495 kts | 57° |
| 2026-04-20 17:56 | 29.76849 | -142.10061 | 39181 ft | 495 kts | 57° |
| 2026-04-20 17:57 | 29.80094 | -142.03064 | 39183 ft | 495 kts | 57° |
| 2026-04-20 17:57 | 29.83331 | -141.96072 | 39176 ft | 494 kts | 57° |
| 2026-04-20 17:58 | 29.86561 | -141.89081 | 39176 ft | 494 kts | 57° |
| 2026-04-20 17:58 | 29.89782 | -141.82098 | 39176 ft | 494 kts | 57° |
| 2026-04-20 17:59 | 29.93002 | -141.75103 | 39171 ft | 494 kts | 57° |
| 2026-04-20 17:59 | 29.96218 | -141.68104 | 39177 ft | 494 kts | 57° |
| 2026-04-20 18:00 | 29.99434 | -141.61088 | 39171 ft | 494 kts | 57° |
| 2026-04-20 18:00 | 30.02638 | -141.54093 | 39172 ft | 494 kts | 57° |
| 2026-04-20 18:01 | 30.05848 | -141.47072 | 39175 ft | 495 kts | 57° |
| 2026-04-20 18:01 | 30.09062 | -141.40027 | 39170 ft | 495 kts | 57° |
| 2026-04-20 18:02 | 30.12268 | -141.32985 | 39165 ft | 495 kts | 57° |
| 2026-04-20 18:02 | 30.15467 | -141.25944 | 39165 ft | 496 kts | 57° |
| 2026-04-20 18:03 | 30.18675 | -141.18877 | 39163 ft | 497 kts | 57° |
| 2026-04-20 18:03 | 30.21879 | -141.11801 | 39165 ft | 496 kts | 57° |
| 2026-04-20 18:04 | 30.25070 | -141.04741 | 39165 ft | 495 kts | 57° |
| 2026-04-20 18:04 | 30.28262 | -140.97672 | 39165 ft | 495 kts | 57° |
| 2026-04-20 18:05 | 30.33012 | -140.87114 | 39165 ft | 495 kts | 57° |
| 2026-04-20 18:05 | 30.36190 | -140.80038 | 39157 ft | 495 kts | 57° |
| 2026-04-20 18:06 | 30.39367 | -140.72954 | 39155 ft | 496 kts | 57° |
| 2026-04-20 18:06 | 30.42535 | -140.65868 | 39161 ft | 496 kts | 57° |
| 2026-04-20 18:07 | 30.45701 | -140.58768 | 39158 ft | 496 kts | 57° |
| 2026-04-20 18:07 | 30.48863 | -140.51666 | 39155 ft | 496 kts | 57° |
| 2026-04-20 18:08 | 30.52026 | -140.44545 | 39156 ft | 496 kts | 57° |
| 2026-04-20 18:08 | 30.55179 | -140.37435 | 39153 ft | 496 kts | 57° |
| 2026-04-20 18:09 | 30.58339 | -140.30296 | 39151 ft | 496 kts | 57° |
| 2026-04-20 18:09 | 30.61484 | -140.23173 | 39145 ft | 496 kts | 57° |
| 2026-04-20 18:10 | 30.64626 | -140.16045 | 39150 ft | 496 kts | 57° |
| 2026-04-20 18:10 | 30.67767 | -140.08910 | 39162 ft | 497 kts | 57° |
| 2026-04-20 18:11 | 30.70909 | -140.01758 | 39154 ft | 495 kts | 57° |
| 2026-04-20 18:11 | 30.74030 | -139.94641 | 39140 ft | 494 kts | 57° |
| 2026-04-20 18:12 | 30.77152 | -139.87508 | 39144 ft | 495 kts | 57° |
| 2026-04-20 18:12 | 30.80273 | -139.80366 | 39154 ft | 496 kts | 57° |
| 2026-04-20 18:13 | 30.83363 | -139.73277 | 39135 ft | 494 kts | 57° |
| 2026-04-20 18:13 | 30.86465 | -139.66143 | 39139 ft | 494 kts | 57° |
| 2026-04-20 18:14 | 30.89566 | -139.59009 | 39131 ft | 494 kts | 57° |
| 2026-04-20 18:14 | 30.92666 | -139.51863 | 39138 ft | 494 kts | 57° |
| 2026-04-20 18:15 | 30.95756 | -139.44719 | 39132 ft | 493 kts | 57° |
| 2026-04-20 18:15 | 30.98839 | -139.37580 | 39134 ft | 493 kts | 57° |
| 2026-04-20 18:16 | 31.01918 | -139.30432 | 39123 ft | 494 kts | 57° |
| 2026-04-20 18:16 | 31.05000 | -139.23268 | 39131 ft | 493 kts | 57° |
| 2026-04-20 18:17 | 31.08070 | -139.16117 | 39128 ft | 493 kts | 57° |
| 2026-04-20 18:17 | 31.11136 | -139.08962 | 39129 ft | 493 kts | 57° |
| 2026-04-20 18:18 | 31.14199 | -139.01800 | 39139 ft | 493 kts | 57° |
| 2026-04-20 18:18 | 31.17253 | -138.94646 | 39120 ft | 492 kts | 57° |
| 2026-04-20 18:19 | 31.20305 | -138.87480 | 39117 ft | 492 kts | 57° |
| 2026-04-20 18:19 | 31.23352 | -138.80316 | 39120 ft | 492 kts | 57° |
| 2026-04-20 18:20 | 31.26392 | -138.73155 | 39123 ft | 492 kts | 57° |
| 2026-04-20 18:20 | 31.29429 | -138.65987 | 39119 ft | 492 kts | 57° |
| 2026-04-20 18:21 | 31.32465 | -138.58803 | 39107 ft | 493 kts | 57° |
| 2026-04-20 18:21 | 31.35496 | -138.51618 | 39140 ft | 493 kts | 57° |
| 2026-04-20 18:22 | 31.38506 | -138.44469 | 39110 ft | 492 kts | 57° |
| 2026-04-20 18:22 | 31.41548 | -138.37232 | 39105 ft | 493 kts | 57° |
| 2026-04-20 18:23 | 31.44572 | -138.30023 | 39105 ft | 494 kts | 57° |
| 2026-04-20 18:23 | 31.47600 | -138.22795 | 39115 ft | 494 kts | 58° |
| 2026-04-20 18:24 | 31.50594 | -138.15623 | 39100 ft | 493 kts | 58° |
| 2026-04-20 18:24 | 31.53602 | -138.08393 | 39098 ft | 494 kts | 58° |
| 2026-04-20 18:25 | 31.56603 | -138.01150 | 39096 ft | 494 kts | 58° |
| 2026-04-20 18:25 | 31.59610 | -137.93898 | 39094 ft | 494 kts | 58° |
| 2026-04-20 18:26 | 31.62621 | -137.86633 | 39094 ft | 495 kts | 58° |
| 2026-04-20 18:26 | 31.65625 | -137.79370 | 39083 ft | 495 kts | 58° |
| 2026-04-20 18:27 | 31.68630 | -137.72090 | 39092 ft | 496 kts | 58° |
| 2026-04-20 18:27 | 31.71633 | -137.64802 | 39086 ft | 495 kts | 58° |
| 2026-04-20 18:28 | 31.74629 | -137.57515 | 39077 ft | 496 kts | 58° |
| 2026-04-20 18:28 | 31.77632 | -137.50200 | 39092 ft | 497 kts | 58° |
| 2026-04-20 18:29 | 31.80626 | -137.42880 | 39075 ft | 497 kts | 58° |
| 2026-04-20 18:29 | 31.83615 | -137.35565 | 39071 ft | 497 kts | 58° |
| 2026-04-20 18:30 | 31.86610 | -137.28224 | 39067 ft | 498 kts | 58° |
| 2026-04-20 18:30 | 31.89600 | -137.20872 | 39068 ft | 498 kts | 58° |
| 2026-04-20 18:31 | 31.92566 | -137.13571 | 39068 ft | 498 kts | 58° |
| 2026-04-20 18:31 | 31.95553 | -137.06202 | 39062 ft | 499 kts | 58° |
| 2026-04-20 18:32 | 31.98538 | -136.98825 | 39061 ft | 499 kts | 57° |
| 2026-04-20 18:32 | 32.01522 | -136.91436 | 39055 ft | 499 kts | 57° |
| 2026-04-20 18:33 | 32.04502 | -136.84036 | 39049 ft | 500 kts | 58° |
| 2026-04-20 18:33 | 32.07480 | -136.76625 | 39084 ft | 500 kts | 57° |
| 2026-04-20 18:34 | 32.10457 | -136.69201 | 39049 ft | 501 kts | 57° |
| 2026-04-20 18:34 | 32.13429 | -136.61769 | 39049 ft | 501 kts | 57° |
| 2026-04-20 18:35 | 32.16398 | -136.54329 | 39046 ft | 501 kts | 58° |
| 2026-04-20 18:35 | 32.19371 | -136.46873 | 39048 ft | 503 kts | 57° |
| 2026-04-20 18:36 | 32.22352 | -136.39384 | 39035 ft | 504 kts | 57° |
| 2026-04-20 18:36 | 32.25330 | -136.31879 | 39036 ft | 505 kts | 58° |
| 2026-04-20 18:37 | 32.28306 | -136.24358 | 39040 ft | 505 kts | 58° |
| 2026-04-20 18:37 | 32.31279 | -136.16832 | 39026 ft | 506 kts | 58° |
| 2026-04-20 18:38 | 32.34247 | -136.09296 | 39034 ft | 506 kts | 58° |
| 2026-04-20 18:38 | 32.37222 | -136.01737 | 39034 ft | 507 kts | 58° |
| 2026-04-20 18:39 | 32.40192 | -135.94174 | 39023 ft | 508 kts | 58° |
| 2026-04-20 18:39 | 32.43149 | -135.86627 | 39028 ft | 509 kts | 58° |
| 2026-04-20 18:40 | 32.46121 | -135.79020 | 39036 ft | 510 kts | 58° |
| 2026-04-20 18:40 | 32.49098 | -135.71384 | 39018 ft | 511 kts | 58° |
| 2026-04-20 18:41 | 32.52076 | -135.63728 | 39016 ft | 512 kts | 58° |
| 2026-04-20 18:41 | 32.55054 | -135.56061 | 39025 ft | 513 kts | 58° |
| 2026-04-20 18:42 | 32.57527 | -135.49674 | 39012 ft | 514 kts | 58° |
| 2026-04-20 18:42 | 32.60512 | -135.41958 | 39006 ft | 514 kts | 58° |
| 2026-04-20 18:43 | 32.63487 | -135.34241 | 39043 ft | 515 kts | 58° |
| 2026-04-20 18:43 | 32.66463 | -135.26508 | 39002 ft | 517 kts | 58° |
| 2026-04-20 18:44 | 32.69448 | -135.18735 | 38989 ft | 518 kts | 58° |
| 2026-04-20 18:44 | 32.72430 | -135.10951 | 39026 ft | 518 kts | 58° |
| 2026-04-20 18:45 | 32.75413 | -135.03167 | 38998 ft | 519 kts | 58° |
| 2026-04-20 18:45 | 32.78404 | -134.95341 | 38988 ft | 519 kts | 58° |
| 2026-04-20 18:46 | 32.81380 | -134.87519 | 38987 ft | 520 kts | 58° |
| 2026-04-20 18:46 | 32.84351 | -134.79693 | 38984 ft | 520 kts | 58° |
| 2026-04-20 18:47 | 32.87322 | -134.71850 | 38982 ft | 520 kts | 58° |
| 2026-04-20 18:47 | 32.90286 | -134.64005 | 38982 ft | 520 kts | 58° |
| 2026-04-20 18:48 | 32.93246 | -134.56151 | 38982 ft | 520 kts | 58° |
| 2026-04-20 18:48 | 32.96201 | -134.48294 | 38977 ft | 520 kts | 58° |
| 2026-04-20 18:49 | 32.99154 | -134.40423 | 38990 ft | 521 kts | 59° |
| 2026-04-20 18:49 | 33.02105 | -134.32539 | 38972 ft | 521 kts | 59° |
| 2026-04-20 18:50 | 33.05049 | -134.24659 | 38969 ft | 521 kts | 59° |
| 2026-04-20 18:50 | 33.07986 | -134.16780 | 38971 ft | 521 kts | 59° |
| 2026-04-20 18:51 | 33.10922 | -134.08882 | 38963 ft | 521 kts | 59° |
| 2026-04-20 18:51 | 33.13852 | -134.00981 | 38966 ft | 521 kts | 60° |
| 2026-04-20 18:52 | 33.16778 | -133.93072 | 38960 ft | 520 kts | 60° |
| 2026-04-20 18:52 | 33.19672 | -133.85232 | 38949 ft | 520 kts | 60° |
| 2026-04-20 18:53 | 33.22588 | -133.77314 | 38951 ft | 520 kts | 60° |
| 2026-04-20 18:53 | 33.25490 | -133.69412 | 38947 ft | 519 kts | 60° |
| 2026-04-20 18:54 | 33.28389 | -133.61508 | 38960 ft | 520 kts | 61° |
| 2026-04-20 18:54 | 33.31281 | -133.53601 | 38941 ft | 520 kts | 60° |
| 2026-04-20 18:55 | 33.34178 | -133.45660 | 38944 ft | 521 kts | 61° |
| 2026-04-20 18:55 | 33.37070 | -133.37717 | 38948 ft | 521 kts | 61° |
| 2026-04-20 18:56 | 33.39957 | -133.29761 | 38940 ft | 520 kts | 61° |
| 2026-04-20 18:56 | 33.42835 | -133.21815 | 38949 ft | 521 kts | 61° |
| 2026-04-20 18:57 | 33.45712 | -133.13859 | 38936 ft | 520 kts | 62° |
| 2026-04-20 18:57 | 33.48579 | -133.05904 | 38934 ft | 520 kts | 62° |
| 2026-04-20 18:58 | 33.51442 | -132.97944 | 38937 ft | 520 kts | 62° |
| 2026-04-20 18:58 | 33.54300 | -132.89978 | 38933 ft | 520 kts | 62° |
| 2026-04-20 18:59 | 33.57153 | -132.82010 | 38930 ft | 521 kts | 62° |
| 2026-04-20 18:59 | 33.59984 | -132.74077 | 38930 ft | 521 kts | 62° |
| 2026-04-20 19:00 | 33.62828 | -132.66091 | 38931 ft | 521 kts | 62° |
| 2026-04-20 19:00 | 33.65671 | -132.58091 | 38929 ft | 521 kts | 63° |
| 2026-04-20 19:01 | 33.68508 | -132.50085 | 38924 ft | 522 kts | 63° |
| 2026-04-20 19:01 | 33.71349 | -132.42053 | 38922 ft | 523 kts | 63° |
| 2026-04-20 19:02 | 33.74185 | -132.34011 | 38926 ft | 524 kts | 63° |
| 2026-04-20 19:02 | 33.77029 | -132.25929 | 38921 ft | 525 kts | 63° |
| 2026-04-20 19:03 | 33.79866 | -132.17840 | 38932 ft | 525 kts | 63° |
| 2026-04-20 19:03 | 33.82702 | -132.09738 | 38923 ft | 528 kts | 63° |
| 2026-04-20 19:04 | 33.85546 | -132.01595 | 38911 ft | 528 kts | 64° |
| 2026-04-20 19:04 | 33.88382 | -131.93444 | 38917 ft | 529 kts | 64° |
| 2026-04-20 19:05 | 33.91224 | -131.85262 | 38916 ft | 531 kts | 64° |
| 2026-04-20 19:05 | 33.94067 | -131.77058 | 38938 ft | 531 kts | 64° |
| 2026-04-20 19:06 | 33.96905 | -131.68838 | 38912 ft | 532 kts | 65° |
| 2026-04-20 19:06 | 33.99751 | -131.60582 | 38910 ft | 534 kts | 65° |
| 2026-04-20 19:07 | 34.02593 | -131.52315 | 38908 ft | 534 kts | 65° |
| 2026-04-20 19:07 | 34.05427 | -131.44049 | 38907 ft | 534 kts | 65° |
| 2026-04-20 19:08 | 34.09672 | -131.31634 | 38920 ft | 534 kts | 66° |
| 2026-04-20 19:09 | 34.12491 | -131.23353 | 38915 ft | 533 kts | 66° |
| 2026-04-20 19:09 | 34.15304 | -131.15064 | 38905 ft | 533 kts | 66° |
| 2026-04-20 19:10 | 34.18093 | -131.06832 | 38909 ft | 533 kts | 66° |
| 2026-04-20 19:10 | 34.20896 | -130.98540 | 38913 ft | 533 kts | 66° |
| 2026-04-20 19:11 | 34.23693 | -130.90241 | 38919 ft | 533 kts | 67° |
| 2026-04-20 19:11 | 34.26479 | -130.81951 | 38915 ft | 532 kts | 67° |
| 2026-04-20 19:12 | 34.29256 | -130.73655 | 38906 ft | 532 kts | 67° |
| 2026-04-20 19:12 | 34.32028 | -130.65367 | 38907 ft | 532 kts | 67° |
| 2026-04-20 19:13 | 34.34800 | -130.57061 | 38909 ft | 532 kts | 67° |
| 2026-04-20 19:13 | 34.37565 | -130.48750 | 38908 ft | 533 kts | 67° |
| 2026-04-20 19:14 | 34.40323 | -130.40425 | 38908 ft | 532 kts | 67° |
| 2026-04-20 19:14 | 34.43072 | -130.32111 | 38912 ft | 532 kts | 68° |
| 2026-04-20 19:15 | 34.45815 | -130.23796 | 38905 ft | 532 kts | 68° |
| 2026-04-20 19:15 | 34.48553 | -130.15473 | 38909 ft | 531 kts | 68° |
| 2026-04-20 19:16 | 34.51277 | -130.07169 | 38913 ft | 530 kts | 68° |
| 2026-04-20 19:16 | 34.53981 | -129.98902 | 38911 ft | 530 kts | 69° |
| 2026-04-20 19:17 | 34.56711 | -129.90539 | 38910 ft | 530 kts | 69° |
| 2026-04-20 19:17 | 34.59401 | -129.82271 | 38914 ft | 530 kts | 69° |
| 2026-04-20 19:18 | 34.62099 | -129.73956 | 38911 ft | 530 kts | 69° |
| 2026-04-20 19:18 | 34.64795 | -129.65623 | 38912 ft | 529 kts | 69° |
| 2026-04-20 19:19 | 34.67480 | -129.57302 | 38913 ft | 529 kts | 70° |
| 2026-04-20 19:19 | 34.70155 | -129.48980 | 38912 ft | 528 kts | 70° |
| 2026-04-20 19:20 | 34.72826 | -129.40665 | 38914 ft | 528 kts | 70° |
| 2026-04-20 19:20 | 34.75490 | -129.32348 | 38912 ft | 528 kts | 70° |
| 2026-04-20 19:21 | 34.78142 | -129.24035 | 38917 ft | 526 kts | 71° |
| 2026-04-20 19:21 | 34.80779 | -129.15729 | 38915 ft | 526 kts | 70° |
| 2026-04-20 19:22 | 34.83418 | -129.07423 | 38915 ft | 526 kts | 71° |
| 2026-04-20 19:22 | 34.86046 | -128.99128 | 38921 ft | 525 kts | 71° |
| 2026-04-20 19:23 | 34.88669 | -128.90823 | 38920 ft | 525 kts | 71° |
| 2026-04-20 19:23 | 34.91281 | -128.82525 | 38917 ft | 525 kts | 72° |
| 2026-04-20 19:24 | 34.93887 | -128.74223 | 38925 ft | 524 kts | 72° |
| 2026-04-20 19:24 | 34.96481 | -128.65933 | 38923 ft | 524 kts | 72° |
| 2026-04-20 19:25 | 34.99071 | -128.57638 | 38924 ft | 523 kts | 72° |
| 2026-04-20 19:25 | 35.01654 | -128.49339 | 38925 ft | 523 kts | 72° |
| 2026-04-20 19:26 | 35.04226 | -128.41048 | 38921 ft | 523 kts | 72° |
| 2026-04-20 19:26 | 35.06795 | -128.32742 | 38923 ft | 523 kts | 72° |
| 2026-04-20 19:27 | 35.09358 | -128.24439 | 38928 ft | 523 kts | 72° |
| 2026-04-20 19:27 | 35.11913 | -128.16137 | 38918 ft | 523 kts | 73° |
| 2026-04-20 19:28 | 35.14467 | -128.07819 | 38925 ft | 522 kts | 73° |
| 2026-04-20 19:28 | 35.16989 | -127.99577 | 38927 ft | 521 kts | 73° |
| 2026-04-20 19:29 | 35.19524 | -127.91266 | 38925 ft | 521 kts | 73° |
| 2026-04-20 19:29 | 35.22049 | -127.82971 | 38928 ft | 520 kts | 73° |
| 2026-04-20 19:30 | 35.24566 | -127.74674 | 38930 ft | 520 kts | 74° |
| 2026-04-20 19:30 | 35.26671 | -127.67716 | 38924 ft | 520 kts | 74° |
| 2026-04-20 19:31 | 35.29174 | -127.59427 | 38899 ft | 519 kts | 74° |
| 2026-04-20 19:31 | 35.31671 | -127.51129 | 38931 ft | 520 kts | 74° |
| 2026-04-20 19:32 | 35.34163 | -127.42819 | 38931 ft | 520 kts | 74° |
| 2026-04-20 19:32 | 35.36646 | -127.34517 | 38936 ft | 519 kts | 75° |
| 2026-04-20 19:33 | 35.39108 | -127.26263 | 38938 ft | 519 kts | 75° |
| 2026-04-20 19:33 | 35.41577 | -127.17960 | 38935 ft | 518 kts | 75° |
| 2026-04-20 19:34 | 35.44041 | -127.09655 | 38939 ft | 518 kts | 75° |
| 2026-04-20 19:34 | 35.46497 | -127.01350 | 38937 ft | 518 kts | 75° |
| 2026-04-20 19:35 | 35.48943 | -126.93054 | 38938 ft | 517 kts | 75° |
| 2026-04-20 19:35 | 35.51383 | -126.84759 | 38939 ft | 516 kts | 75° |
| 2026-04-20 19:36 | 35.53814 | -126.76465 | 38938 ft | 516 kts | 75° |
| 2026-04-20 19:36 | 35.56231 | -126.68194 | 38934 ft | 515 kts | 76° |
| 2026-04-20 19:37 | 35.58641 | -126.59922 | 38943 ft | 514 kts | 76° |
| 2026-04-20 19:37 | 35.61045 | -126.51647 | 38942 ft | 514 kts | 76° |
| 2026-04-20 19:38 | 35.63439 | -126.43384 | 38947 ft | 512 kts | 76° |
| 2026-04-20 19:38 | 35.65818 | -126.35148 | 38938 ft | 512 kts | 76° |
| 2026-04-20 19:39 | 35.68197 | -126.26887 | 38938 ft | 511 kts | 76° |
| 2026-04-20 19:39 | 35.70564 | -126.18637 | 38944 ft | 511 kts | 76° |
| 2026-04-20 19:40 | 35.72920 | -126.10411 | 38944 ft | 510 kts | 76° |
| 2026-04-20 19:40 | 35.75540 | -126.02275 | 38945 ft | 512 kts | 72° |
| 2026-04-20 19:41 | 35.78362 | -125.94213 | 38950 ft | 513 kts | 72° |
| 2026-04-20 19:41 | 35.81181 | -125.86144 | 38947 ft | 513 kts | 72° |
| 2026-04-20 19:42 | 35.83961 | -125.78061 | 38942 ft | 513 kts | 72° |
| 2026-04-20 19:42 | 35.86719 | -125.69970 | 38945 ft | 510 kts | 73° |
| 2026-04-20 19:43 | 35.88993 | -125.63276 | 38953 ft | 508 kts | 73° |
| 2026-04-20 19:43 | 35.92176 | -125.53882 | 38950 ft | 507 kts | 73° |
| 2026-04-20 19:44 | 35.94886 | -125.45855 | 38947 ft | 506 kts | 73° |
| 2026-04-20 19:44 | 35.97585 | -125.37853 | 38953 ft | 503 kts | 73° |
| 2026-04-20 19:45 | 36.00265 | -125.29873 | 38952 ft | 503 kts | 73° |
| 2026-04-20 19:45 | 36.02941 | -125.21892 | 38946 ft | 502 kts | 73° |
| 2026-04-20 19:46 | 36.05598 | -125.13950 | 38958 ft | 499 kts | 73° |
| 2026-04-20 19:46 | 36.08240 | -125.06028 | 38958 ft | 498 kts | 73° |
| 2026-04-20 19:47 | 36.10874 | -124.98102 | 38947 ft | 498 kts | 73° |
| 2026-04-20 19:47 | 36.13497 | -124.90193 | 38960 ft | 496 kts | 73° |
| 2026-04-20 19:48 | 36.16110 | -124.82298 | 38963 ft | 496 kts | 74° |
| 2026-04-20 19:48 | 36.19203 | -124.74690 | 38964 ft | 505 kts | 60° |
| 2026-04-20 19:49 | 36.23363 | -124.67665 | 38959 ft | 507 kts | 56° |
| 2026-04-20 19:49 | 36.27709 | -124.60792 | 38974 ft | 507 kts | 56° |
| 2026-04-20 19:50 | 36.32070 | -124.53937 | 38966 ft | 506 kts | 56° |
| 2026-04-20 19:50 | 36.36411 | -124.47054 | 38950 ft | 506 kts | 56° |
| 2026-04-20 19:51 | 36.40718 | -124.40180 | 38968 ft | 503 kts | 57° |
| 2026-04-20 19:51 | 36.45001 | -124.33323 | 38960 ft | 502 kts | 57° |
| 2026-04-20 19:52 | 36.49280 | -124.26454 | 38965 ft | 502 kts | 57° |
| 2026-04-20 19:52 | 36.53551 | -124.19587 | 38958 ft | 502 kts | 57° |
| 2026-04-20 19:53 | 36.57808 | -124.12735 | 38968 ft | 498 kts | 57° |
| 2026-04-20 19:53 | 36.62034 | -124.05917 | 38966 ft | 498 kts | 57° |
| 2026-04-20 19:54 | 36.66259 | -123.99086 | 38969 ft | 498 kts | 57° |
| 2026-04-20 19:54 | 36.70478 | -123.92250 | 38965 ft | 497 kts | 57° |
| 2026-04-20 19:55 | 36.74683 | -123.85422 | 38973 ft | 497 kts | 57° |
| 2026-04-20 19:55 | 36.78882 | -123.78591 | 38970 ft | 496 kts | 57° |
| 2026-04-20 19:56 | 36.82375 | -123.72896 | 38973 ft | 496 kts | 57° |
| 2026-04-20 19:56 | 36.87276 | -123.64895 | 38966 ft | 496 kts | 57° |
| 2026-04-20 19:57 | 36.91460 | -123.58044 | 38966 ft | 496 kts | 57° |
| 2026-04-20 19:57 | 36.95643 | -123.51185 | 38967 ft | 496 kts | 57° |
| 2026-04-20 19:58 | 36.99824 | -123.44313 | 38973 ft | 496 kts | 57° |
| 2026-04-20 19:58 | 37.03992 | -123.37448 | 38970 ft | 496 kts | 57° |
| 2026-04-20 19:59 | 37.08161 | -123.30570 | 38966 ft | 496 kts | 57° |
| 2026-04-20 19:59 | 37.12324 | -123.23689 | 38970 ft | 496 kts | 57° |
| 2026-04-20 20:00 | 37.16481 | -123.16798 | 38971 ft | 496 kts | 57° |
| 2026-04-20 20:00 | 37.20635 | -123.09899 | 38971 ft | 496 kts | 57° |
| 2026-04-20 20:01 | 37.24790 | -123.02991 | 38976 ft | 496 kts | 57° |
| 2026-04-20 20:01 | 37.28913 | -122.96116 | 38972 ft | 496 kts | 57° |
| 2026-04-20 20:02 | 37.33088 | -122.89138 | 38968 ft | 496 kts | 57° |
| 2026-04-20 20:02 | 37.37224 | -122.82216 | 38966 ft | 495 kts | 57° |
| 2026-04-20 20:03 | 37.41357 | -122.75284 | 38978 ft | 495 kts | 57° |
| 2026-04-20 20:03 | 37.45458 | -122.68389 | 38985 ft | 495 kts | 57° |
| 2026-04-20 20:04 | 37.49584 | -122.61439 | 38969 ft | 495 kts | 57° |
| 2026-04-20 20:04 | 37.53700 | -122.54490 | 38991 ft | 495 kts | 57° |
| 2026-04-20 20:05 | 37.57813 | -122.47532 | 38987 ft | 495 kts | 57° |
| 2026-04-20 20:05 | 37.61925 | -122.40560 | 38977 ft | 495 kts | 57° |
| 2026-04-20 20:06 | 37.66026 | -122.33593 | 38979 ft | 495 kts | 57° |
| 2026-04-20 20:06 | 37.70126 | -122.26612 | 39000 ft | 495 kts | 57° |
| 2026-04-20 20:07 | 37.74508 | -122.19871 | 39001 ft | 498 kts | 51° |
| 2026-04-20 20:07 | 37.79205 | -122.13412 | 38995 ft | 499 kts | 50° |
| 2026-04-20 20:08 | 37.83952 | -122.07006 | 38963 ft | 499 kts | 50° |
| 2026-04-20 20:08 | 37.88696 | -122.00598 | 38963 ft | 499 kts | 50° |
| 2026-04-20 20:09 | 37.93424 | -121.94180 | 38971 ft | 498 kts | 50° |
| 2026-04-20 20:09 | 37.98151 | -121.87739 | 38991 ft | 498 kts | 50° |
| 2026-04-20 20:10 | 38.02865 | -121.81304 | 38978 ft | 498 kts | 50° |
| 2026-04-20 20:10 | 38.07583 | -121.74851 | 38973 ft | 499 kts | 50° |
| 2026-04-20 20:11 | 38.12295 | -121.68396 | 38975 ft | 498 kts | 50° |
| 2026-04-20 20:11 | 38.16997 | -121.61941 | 38976 ft | 497 kts | 50° |
| 2026-04-20 20:12 | 38.21692 | -121.55476 | 38973 ft | 497 kts | 50° |
| 2026-04-20 20:12 | 38.26382 | -121.49009 | 38970 ft | 497 kts | 50° |
| 2026-04-20 20:13 | 38.33391 | -121.39307 | 38971 ft | 495 kts | 51° |
| 2026-04-20 20:13 | 38.37778 | -121.32572 | 38964 ft | 494 kts | 55° |
| 2026-04-20 20:14 | 38.41279 | -121.26828 | 38960 ft | 493 kts | 56° |
| 2026-04-20 20:14 | 38.46174 | -121.18781 | 38965 ft | 493 kts | 55° |
| 2026-04-20 20:15 | 38.49710 | -121.13020 | 38965 ft | 492 kts | 55° |
| 2026-04-20 20:15 | 38.53940 | -121.06151 | 38963 ft | 492 kts | 55° |
| 2026-04-20 20:16 | 38.58163 | -120.99289 | 38964 ft | 492 kts | 55° |
| 2026-04-20 20:16 | 38.62394 | -120.92397 | 38961 ft | 491 kts | 55° |
| 2026-04-20 20:17 | 38.66598 | -120.85535 | 38967 ft | 489 kts | 55° |
| 2026-04-20 20:17 | 38.70758 | -120.78725 | 39009 ft | 489 kts | 55° |
| 2026-04-20 20:18 | 38.74949 | -120.71848 | 39010 ft | 489 kts | 55° |
| 2026-04-20 20:18 | 38.79127 | -120.64978 | 39003 ft | 489 kts | 55° |
| 2026-04-20 20:19 | 38.83317 | -120.58081 | 38996 ft | 490 kts | 55° |
| 2026-04-20 20:19 | 38.87524 | -120.51140 | 38983 ft | 489 kts | 55° |
| 2026-04-20 20:20 | 38.91665 | -120.44289 | 38969 ft | 489 kts | 56° |
| 2026-04-20 20:20 | 38.95860 | -120.37332 | 38951 ft | 489 kts | 56° |
| 2026-04-20 20:21 | 39.00011 | -120.30435 | 38966 ft | 486 kts | 56° |
| 2026-04-20 20:21 | 39.04141 | -120.23558 | 38981 ft | 486 kts | 56° |
| 2026-04-20 20:22 | 39.08233 | -120.16730 | 38992 ft | 485 kts | 56° |
| 2026-04-20 20:22 | 39.12355 | -120.09838 | 39017 ft | 485 kts | 56° |
| 2026-04-20 20:23 | 39.16485 | -120.02913 | 39007 ft | 490 kts | 55° |
| 2026-04-20 20:23 | 39.20641 | -119.95932 | 38965 ft | 491 kts | 56° |
| 2026-04-20 20:24 | 39.24801 | -119.88929 | 38972 ft | 492 kts | 56° |
| 2026-04-20 20:24 | 39.28952 | -119.81933 | 38965 ft | 492 kts | 55° |
| 2026-04-20 20:25 | 39.33108 | -119.74912 | 38969 ft | 491 kts | 55° |
| 2026-04-20 20:25 | 39.37253 | -119.67887 | 38939 ft | 491 kts | 56° |
| 2026-04-20 20:26 | 39.41386 | -119.60872 | 38936 ft | 491 kts | 56° |
| 2026-04-20 20:26 | 39.45519 | -119.53836 | 38912 ft | 491 kts | 56° |
| 2026-04-20 20:27 | 39.49643 | -119.46803 | 38916 ft | 489 kts | 55° |
| 2026-04-20 20:27 | 39.53750 | -119.39784 | 38872 ft | 490 kts | 55° |
| 2026-04-20 20:28 | 39.57864 | -119.32736 | 38850 ft | 490 kts | 55° |
| 2026-04-20 20:28 | 39.61978 | -119.25671 | 38852 ft | 491 kts | 56° |
| 2026-04-20 20:29 | 39.66092 | -119.18590 | 38849 ft | 493 kts | 55° |
| 2026-04-20 20:29 | 39.70223 | -119.11468 | 38851 ft | 494 kts | 55° |
| 2026-04-20 20:30 | 39.74346 | -119.04344 | 38850 ft | 494 kts | 55° |
| 2026-04-20 20:30 | 39.78468 | -118.97204 | 38853 ft | 494 kts | 55° |
| 2026-04-20 20:31 | 39.82575 | -118.90075 | 38853 ft | 492 kts | 55° |
| 2026-04-20 20:31 | 39.86670 | -118.82951 | 38892 ft | 490 kts | 55° |
| 2026-04-20 20:32 | 39.90214 | -118.75433 | 38917 ft | 487 kts | 63° |
| 2026-04-20 20:32 | 39.93431 | -118.67691 | 38926 ft | 486 kts | 65° |
| 2026-04-20 20:33 | 39.96566 | -118.59944 | 38948 ft | 486 kts | 65° |
| 2026-04-20 20:33 | 39.99716 | -118.52145 | 38952 ft | 486 kts | 64° |
| 2026-04-20 20:34 | 40.02867 | -118.44355 | 38950 ft | 486 kts | 64° |
| 2026-04-20 20:34 | 40.06019 | -118.36562 | 38923 ft | 486 kts | 65° |
| 2026-04-20 20:35 | 40.09166 | -118.28752 | 38862 ft | 486 kts | 64° |
| 2026-04-20 20:35 | 40.12306 | -118.20945 | 38863 ft | 485 kts | 64° |
| 2026-04-20 20:36 | 40.15442 | -118.13127 | 38858 ft | 486 kts | 64° |
| 2026-04-20 20:36 | 40.18571 | -118.05306 | 38853 ft | 485 kts | 64° |
| 2026-04-20 20:37 | 40.21060 | -117.97141 | 38860 ft | 483 kts | 74° |
| 2026-04-20 20:37 | 40.23089 | -117.88777 | 38859 ft | 483 kts | 76° |
| 2026-04-20 20:38 | 40.25031 | -117.80365 | 38862 ft | 483 kts | 76° |
| 2026-04-20 20:38 | 40.26966 | -117.71951 | 38861 ft | 483 kts | 76° |
| 2026-04-20 20:39 | 40.28906 | -117.63536 | 38862 ft | 482 kts | 76° |
| 2026-04-20 20:39 | 40.30849 | -117.55117 | 38858 ft | 483 kts | 76° |
| 2026-04-20 20:40 | 40.32787 | -117.46702 | 38840 ft | 482 kts | 76° |
| 2026-04-20 20:40 | 40.34716 | -117.38281 | 38857 ft | 483 kts | 76° |
| 2026-04-20 20:41 | 40.36639 | -117.29847 | 38857 ft | 483 kts | 76° |
| 2026-04-20 20:41 | 40.38556 | -117.21405 | 38851 ft | 483 kts | 76° |
| 2026-04-20 20:42 | 40.40466 | -117.12962 | 38890 ft | 483 kts | 76° |
| 2026-04-20 20:42 | 40.42375 | -117.04510 | 38914 ft | 483 kts | 76° |
| 2026-04-20 20:43 | 40.44273 | -116.96060 | 38935 ft | 483 kts | 76° |
| 2026-04-20 20:43 | 40.46166 | -116.87599 | 38950 ft | 483 kts | 76° |
| 2026-04-20 20:44 | 40.48055 | -116.79125 | 38953 ft | 483 kts | 75° |
| 2026-04-20 20:44 | 40.49937 | -116.70657 | 38940 ft | 483 kts | 75° |
| 2026-04-20 20:45 | 40.51813 | -116.62180 | 38922 ft | 483 kts | 75° |
| 2026-04-20 20:45 | 40.53687 | -116.53691 | 38895 ft | 483 kts | 75° |
| 2026-04-20 20:46 | 40.55548 | -116.45213 | 38872 ft | 483 kts | 75° |
| 2026-04-20 20:46 | 40.56953 | -116.36589 | 38863 ft | 481 kts | 84° |
| 2026-04-20 20:47 | 40.57829 | -116.27879 | 38862 ft | 481 kts | 85° |
| 2026-04-20 20:47 | 40.58662 | -116.19156 | 38866 ft | 481 kts | 84° |
| 2026-04-20 20:48 | 40.59486 | -116.10423 | 38874 ft | 481 kts | 84° |
| 2026-04-20 20:48 | 40.60301 | -116.01706 | 38873 ft | 481 kts | 84° |
| 2026-04-20 20:49 | 40.61110 | -115.92959 | 38876 ft | 481 kts | 84° |
| 2026-04-20 20:49 | 40.61911 | -115.84214 | 38887 ft | 482 kts | 84° |
| 2026-04-20 20:50 | 40.62709 | -115.75462 | 38901 ft | 482 kts | 84° |
| 2026-04-20 20:50 | 40.63499 | -115.66696 | 38901 ft | 482 kts | 84° |
| 2026-04-20 20:51 | 40.64285 | -115.57916 | 38911 ft | 482 kts | 84° |
| 2026-04-20 20:51 | 40.65062 | -115.49145 | 38930 ft | 483 kts | 84° |
| 2026-04-20 20:52 | 40.65836 | -115.40362 | 38926 ft | 482 kts | 84° |
| 2026-04-20 20:52 | 40.66599 | -115.31589 | 38931 ft | 482 kts | 84° |
| 2026-04-20 20:53 | 40.67355 | -115.22824 | 38947 ft | 480 kts | 84° |
| 2026-04-20 20:53 | 40.68096 | -115.14164 | 38950 ft | 479 kts | 84° |
| 2026-04-20 20:54 | 40.68834 | -115.05453 | 38947 ft | 479 kts | 84° |
| 2026-04-20 20:54 | 40.69566 | -114.96727 | 38954 ft | 479 kts | 84° |
| 2026-04-20 20:55 | 40.70248 | -114.87999 | 38954 ft | 478 kts | 87° |
| 2026-04-20 20:55 | 40.70499 | -114.79244 | 38955 ft | 478 kts | 89° |
| 2026-04-20 20:56 | 40.70699 | -114.70479 | 38960 ft | 478 kts | 88° |
| 2026-04-20 20:56 | 40.70902 | -114.61719 | 38973 ft | 478 kts | 89° |
| 2026-04-20 20:57 | 40.71105 | -114.52963 | 38969 ft | 479 kts | 89° |
| 2026-04-20 20:57 | 40.71304 | -114.44180 | 38808 ft | 480 kts | 89° |
| 2026-04-20 20:58 | 40.71400 | -114.39780 | 38106 ft | 483 kts | 89° |
| 2026-04-20 20:58 | 40.71497 | -114.35329 | 37451 ft | 485 kts | 88° |
| 2026-04-20 20:58 | 40.71560 | -114.32344 | 37086 ft | 484 kts | 88° |
| 2026-04-20 20:58 | 40.71683 | -114.26476 | 36367 ft | 483 kts | 88° |
| 2026-04-20 20:59 | 40.71744 | -114.23492 | 35973 ft | 483 kts | 88° |
| 2026-04-20 20:59 | 40.71832 | -114.19121 | 35385 ft | 483 kts | 88° |
| 2026-04-20 20:59 | 40.71920 | -114.14698 | 34739 ft | 484 kts | 88° |
| 2026-04-20 20:59 | 40.72007 | -114.10255 | 33986 ft | 487 kts | 88° |
| 2026-04-20 21:00 | 40.72093 | -114.05762 | 33115 ft | 491 kts | 89° |
| 2026-04-20 21:00 | 40.72177 | -114.01258 | 32309 ft | 493 kts | 89° |
| 2026-04-20 21:00 | 40.72260 | -113.96725 | 31478 ft | 496 kts | 89° |
| 2026-04-20 21:00 | 40.72343 | -113.92128 | 30897 ft | 492 kts | 90° |
| 2026-04-20 21:01 | 40.72422 | -113.87638 | 30335 ft | 489 kts | 90° |
| 2026-04-20 21:01 | 40.72497 | -113.83224 | 29670 ft | 486 kts | 90° |
| 2026-04-20 21:01 | 40.72572 | -113.78783 | 29036 ft | 482 kts | 90° |
| 2026-04-20 21:01 | 40.72625 | -113.74401 | 28420 ft | 477 kts | 91° |
| 2026-04-20 21:02 | 40.72630 | -113.70046 | 27830 ft | 472 kts | 91° |
| 2026-04-20 21:02 | 40.72625 | -113.65742 | 27222 ft | 468 kts | 92° |
| 2026-04-20 21:02 | 40.72617 | -113.61468 | 26628 ft | 464 kts | 92° |
| 2026-04-20 21:02 | 40.72609 | -113.57216 | 26017 ft | 461 kts | 92° |
| 2026-04-20 21:03 | 40.72601 | -113.53006 | 25403 ft | 459 kts | 92° |
| 2026-04-20 21:03 | 40.72591 | -113.48832 | 24819 ft | 456 kts | 92° |
| 2026-04-20 21:03 | 40.72581 | -113.44657 | 24211 ft | 453 kts | 92° |
| 2026-04-20 21:03 | 40.72568 | -113.40512 | 23611 ft | 450 kts | 92° |
| 2026-04-20 21:04 | 40.72554 | -113.36395 | 22918 ft | 447 kts | 92° |
| 2026-04-20 21:04 | 40.72540 | -113.32327 | 22358 ft | 442 kts | 93° |
| 2026-04-20 21:04 | 40.72524 | -113.28294 | 21772 ft | 437 kts | 93° |
| 2026-04-20 21:04 | 40.72507 | -113.24310 | 21198 ft | 432 kts | 93° |
| 2026-04-20 21:05 | 40.72489 | -113.20368 | 20618 ft | 428 kts | 93° |
| 2026-04-20 21:05 | 40.72470 | -113.16475 | 20052 ft | 423 kts | 93° |
| 2026-04-20 21:05 | 40.72449 | -113.12613 | 19489 ft | 419 kts | 93° |
| 2026-04-20 21:05 | 40.72427 | -113.08792 | 18926 ft | 415 kts | 93° |
| 2026-04-20 21:06 | 40.72404 | -113.05006 | 18413 ft | 410 kts | 93° |
| 2026-04-20 21:06 | 40.72381 | -113.01318 | 18303 ft | 394 kts | 93° |
| 2026-04-20 21:06 | 40.72360 | -112.97774 | 18179 ft | 380 kts | 93° |
| 2026-04-20 21:06 | 40.72339 | -112.94339 | 17979 ft | 368 kts | 94° |
| 2026-04-20 21:07 | 40.72316 | -112.91020 | 17773 ft | 357 kts | 94° |
| 2026-04-20 21:07 | 40.72291 | -112.87804 | 17555 ft | 348 kts | 94° |
| 2026-04-20 21:07 | 40.72264 | -112.84624 | 17112 ft | 346 kts | 94° |
| 2026-04-20 21:07 | 40.72234 | -112.81476 | 16682 ft | 344 kts | 94° |
| 2026-04-20 21:08 | 40.72204 | -112.78371 | 16386 ft | 339 kts | 94° |
| 2026-04-20 21:08 | 40.72176 | -112.75288 | 16149 ft | 335 kts | 95° |
| 2026-04-20 21:08 | 40.72146 | -112.72232 | 15929 ft | 333 kts | 95° |
| 2026-04-20 21:08 | 40.72115 | -112.69189 | 15706 ft | 332 kts | 95° |
| 2026-04-20 21:09 | 40.72084 | -112.66147 | 15499 ft | 331 kts | 95° |
| 2026-04-20 21:09 | 40.72053 | -112.63134 | 15285 ft | 329 kts | 95° |
| 2026-04-20 21:09 | 40.72026 | -112.60111 | 15056 ft | 329 kts | 95° |
| 2026-04-20 21:09 | 40.72003 | -112.57103 | 14834 ft | 327 kts | 95° |
| 2026-04-20 21:10 | 40.71973 | -112.54116 | 14620 ft | 325 kts | 97° |
| 2026-04-20 21:10 | 40.71784 | -112.51174 | 14402 ft | 321 kts | 101° |
| 2026-04-20 21:10 | 40.71500 | -112.48264 | 14283 ft | 320 kts | 102° |
| 2026-04-20 21:10 | 40.71201 | -112.45367 | 14087 ft | 319 kts | 102° |
| 2026-04-20 21:11 | 40.70901 | -112.42478 | 13872 ft | 318 kts | 102° |
| 2026-04-20 21:11 | 40.70602 | -112.39586 | 13643 ft | 317 kts | 102° |
| 2026-04-20 21:11 | 40.70306 | -112.36716 | 13442 ft | 315 kts | 102° |
| 2026-04-20 21:11 | 40.70011 | -112.33856 | 13231 ft | 315 kts | 102° |
| 2026-04-20 21:12 | 40.69715 | -112.31001 | 13032 ft | 314 kts | 102° |
| 2026-04-20 21:12 | 40.69420 | -112.28153 | 12815 ft | 313 kts | 102° |
| 2026-04-20 21:12 | 40.69263 | -112.25292 | 12592 ft | 316 kts | 92° |
| 2026-04-20 21:12 | 40.69419 | -112.22399 | 12387 ft | 316 kts | 88° |
| 2026-04-20 21:13 | 40.69651 | -112.19523 | 12151 ft | 316 kts | 87° |
| 2026-04-20 21:13 | 40.70001 | -112.16663 | 12018 ft | 318 kts | 76° |
| 2026-04-20 21:13 | 40.71019 | -112.14067 | 11852 ft | 322 kts | 51° |
| 2026-04-20 21:13 | 40.72602 | -112.11967 | 11716 ft | 323 kts | 43° |
| 2026-04-20 21:14 | 40.74413 | -112.10204 | 11568 ft | 325 kts | 26° |
| 2026-04-20 21:14 | 40.76535 | -112.09423 | 11432 ft | 321 kts | 1° |
| 2026-04-20 21:14 | 40.78784 | -112.09518 | 11300 ft | 319 kts | 353° |
| 2026-04-20 21:14 | 40.80975 | -112.09798 | 11148 ft | 318 kts | 351° |
| 2026-04-20 21:15 | 40.83237 | -112.10108 | 11045 ft | 337 kts | 351° |
| 2026-04-20 21:15 | 40.85633 | -112.10434 | 11016 ft | 354 kts | 352° |
| 2026-04-20 21:15 | 40.88074 | -112.10752 | 11011 ft | 358 kts | 352° |
| 2026-04-20 21:15 | 40.90550 | -112.11066 | 10999 ft | 358 kts | 352° |
| 2026-04-20 21:16 | 40.93033 | -112.11378 | 10992 ft | 358 kts | 352° |
| 2026-04-20 21:16 | 40.95514 | -112.11690 | 10986 ft | 358 kts | 352° |
| 2026-04-20 21:16 | 40.97996 | -112.12001 | 11011 ft | 358 kts | 352° |
| 2026-04-20 21:16 | 41.00473 | -112.12310 | 11026 ft | 358 kts | 352° |
| 2026-04-20 21:17 | 41.02946 | -112.12620 | 11031 ft | 357 kts | 352° |
| 2026-04-20 21:17 | 41.05416 | -112.12930 | 11050 ft | 357 kts | 352° |
| 2026-04-20 21:17 | 41.07893 | -112.13243 | 11053 ft | 358 kts | 352° |
| 2026-04-20 21:17 | 41.10381 | -112.13554 | 11054 ft | 359 kts | 352° |
| 2026-04-20 21:18 | 41.12867 | -112.13867 | 11044 ft | 360 kts | 352° |
| 2026-04-20 21:18 | 41.15367 | -112.13889 | 11048 ft | 362 kts | 8° |
| 2026-04-20 21:18 | 41.17752 | -112.12857 | 10825 ft | 362 kts | 28° |
| 2026-04-20 21:18 | 41.19725 | -112.10831 | 10369 ft | 356 kts | 50° |
| 2026-04-20 21:19 | 41.20955 | -112.08086 | 10184 ft | 339 kts | 73° |
| 2026-04-20 21:19 | 41.21309 | -112.05106 | 10031 ft | 320 kts | 96° |
| 2026-04-20 21:19 | 41.20786 | -112.02345 | 9843 ft | 301 kts | 120° |
| 2026-04-20 21:20 | 41.17936 | -111.98673 | 9162 ft | 283 kts | 150° |
| 2026-04-20 21:20 | 41.16276 | -111.97286 | 9079 ft | 281 kts | 155° |
| 2026-04-20 21:20 | 41.14467 | -111.96371 | 9076 ft | 277 kts | 171° |
| 2026-04-20 21:20 | 41.12568 | -111.96111 | 9074 ft | 273 kts | 181° |
| 2026-04-20 21:21 | 41.10670 | -111.96155 | 9077 ft | 274 kts | 184° |
| 2026-04-20 21:21 | 41.08760 | -111.96220 | 9078 ft | 274 kts | 182° |
| 2026-04-20 21:21 | 41.06857 | -111.96234 | 9006 ft | 273 kts | 181° |
| 2026-04-20 21:21 | 41.04954 | -111.96230 | 8703 ft | 272 kts | 181° |
| 2026-04-20 21:22 | 41.03073 | -111.96211 | 8329 ft | 269 kts | 181° |
| 2026-04-20 21:22 | 41.01213 | -111.96199 | 8094 ft | 267 kts | 181° |
| 2026-04-20 21:22 | 40.99351 | -111.96196 | 7918 ft | 269 kts | 182° |
| 2026-04-20 21:22 | 40.97481 | -111.96208 | 7607 ft | 267 kts | 182° |
| 2026-04-20 21:23 | 40.95627 | -111.96219 | 7270 ft | 264 kts | 181° |
| 2026-04-20 21:23 | 40.93803 | -111.96207 | 6896 ft | 259 kts | 182° |
| 2026-04-20 21:23 | 40.92056 | -111.96204 | 6616 ft | 241 kts | 181° |
| 2026-04-20 21:23 | 40.90474 | -111.96205 | 6386 ft | 214 kts | 181° |
| 2026-04-20 21:24 | 40.89060 | -111.96208 | 6168 ft | 194 kts | 180° |
| 2026-04-20 21:24 | 40.87752 | -111.96208 | 5882 ft | 181 kts | 180° |
| 2026-04-20 21:24 | 40.86546 | -111.96209 | 5578 ft | 165 kts | 180° |
| 2026-04-20 21:24 | 40.85473 | -111.96207 | 5360 ft | 145 kts | 182° |
| 2026-04-20 21:25 | 40.84525 | -111.96207 | 5181 ft | 129 kts | 181° |
| 2026-04-20 21:25 | 40.83635 | -111.96207 | 5028 ft | 128 kts | 185° |
| 2026-04-20 21:25 | 40.82778 | -111.96207 | 4855 ft | 122 kts | 183° |
| 2026-04-20 21:25 | 40.81912 | -111.96208 | 4675 ft | 124 kts | 182° |
| 2026-04-20 21:26 | 40.81061 | -111.96207 | 4515 ft | 124 kts | 186° |
| 2026-04-20 21:26 | 40.80187 | -111.96208 | 4336 ft | 125 kts | 182° |
| 2026-04-20 21:26 | 40.79336 | -111.96208 | 4234 ft | 112 kts | 183° |
| 2026-04-20 21:26 | 40.78800 | -111.96211 | 4236 ft | 43 kts | 180° |
| 2026-04-20 21:27 | 40.78619 | -111.96076 | 4235 ft | 30 kts | 130° |
| 2026-04-20 21:27 | 40.78444 | -111.96006 | 4235 ft | 26 kts | 178° |
| 2026-04-20 21:27 | 40.78272 | -111.96004 | 4234 ft | 24 kts | 180° |
| 2026-04-20 21:27 | 40.78105 | -111.96003 | 4234 ft | 24 kts | 179° |
| 2026-04-20 21:28 | 40.77939 | -111.96006 | 4247 ft | 24 kts | 181° |
| 2026-04-20 21:28 | 40.77783 | -111.95970 | 4248 ft | 22 kts | 160° |
| 2026-04-20 21:28 | 40.77760 | -111.95965 | 4249 ft | 0 kts | 176° |
| 2026-04-20 21:38 | 40.77748 | -111.95986 | 4253 ft | 6 kts | 252° |
| 2026-04-20 21:38 | 40.77791 | -111.96035 | 4252 ft | 13 kts | 6° |
| 2026-04-20 21:39 | 40.77901 | -111.96008 | 4252 ft | 17 kts | 6° |
| 2026-04-20 21:39 | 40.78022 | -111.96004 | 4252 ft | 18 kts | 0° |
| 2026-04-20 21:39 | 40.78151 | -111.96002 | 4225 ft | 19 kts | 360° |
| 2026-04-20 21:39 | 40.78286 | -111.96004 | 4234 ft | 20 kts | 0° |
| 2026-04-20 21:40 | 40.78427 | -111.96004 | 4234 ft | 21 kts | 360° |
| 2026-04-20 21:40 | 40.78573 | -111.96003 | 4235 ft | 22 kts | 2° |
| 2026-04-20 21:40 | 40.78726 | -111.95999 | 4235 ft | 22 kts | 356° |
| 2026-04-20 21:40 | 40.78881 | -111.96005 | 4235 ft | 23 kts | 4° |
| 2026-04-20 21:41 | 40.79040 | -111.96003 | 4235 ft | 23 kts | 359° |
| 2026-04-20 21:41 | 40.79205 | -111.96002 | 4235 ft | 24 kts | 2° |
| 2026-04-20 21:41 | 40.79374 | -111.95991 | 4234 ft | 25 kts | 14° |
| 2026-04-20 21:41 | 40.79515 | -111.95985 | 4234 ft | 17 kts | 343° |
| 2026-04-20 21:42 | 40.79634 | -111.95991 | 4234 ft | 18 kts | 22° |
| 2026-04-20 21:42 | 40.79723 | -111.95990 | 4234 ft | 12 kts | 355° |
| 2026-04-20 21:42 | 40.79811 | -111.95997 | 4234 ft | 13 kts | 357° |
| 2026-04-20 21:42 | 40.79903 | -111.96016 | 4235 ft | 13 kts | 332° |
| 2026-04-20 21:43 | 40.79920 | -111.96112 | 4233 ft | 11 kts | 232° |
| 2026-04-20 21:43 | 40.79858 | -111.96187 | 4234 ft | 13 kts | 221° |
| 2026-04-20 21:43 | 40.79816 | -111.96207 | 4234 ft | 0 kts | 180° |